createdAt,value
2019-03-23T00:01:38.598Z,84.87
2019-03-23T00:04:10.734Z,89.03
2019-03-23T00:06:42.430Z,86.80
2019-03-23T00:09:12.296Z,87.53
2019-03-23T00:11:43.297Z,114.13
2019-03-23T00:14:17.125Z,131.97
2019-03-23T00:16:47.106Z,83.33
2019-03-23T00:19:18.286Z,80.07
2019-03-23T00:21:48.853Z,81.83
2019-03-23T00:24:20.200Z,77.63
2019-03-23T00:26:51.560Z,76.23
2019-03-23T00:29:21.454Z,81.53
2019-03-23T00:31:53.747Z,87.17
2019-03-23T00:34:26.233Z,76.20
2019-03-23T00:36:57.173Z,73.50
2019-03-23T00:39:29.591Z,81.13
2019-03-23T00:42:00.607Z,82.63
2019-03-23T00:44:31.673Z,86.83
2019-03-23T00:47:04.537Z,88.50
2019-03-23T00:49:35.529Z,91.40
2019-03-23T00:52:06.650Z,94.30
2019-03-23T00:54:37.678Z,107.67
2019-03-23T00:57:08.614Z,116.63
2019-03-23T00:59:39.576Z,106.70
2019-03-23T01:02:09.380Z,100.27
2019-03-23T01:04:39.408Z,91.57
2019-03-23T01:07:09.462Z,91.47
2019-03-23T01:09:39.450Z,87.57
2019-03-23T01:12:11.652Z,95.27
2019-03-23T01:14:42.647Z,105.13
2019-03-23T01:17:15.137Z,99.13
2019-03-23T01:19:47.560Z,95.60
2019-03-23T01:22:19.187Z,100.97
2019-03-23T01:24:50.423Z,96.93
2019-03-23T01:27:20.338Z,95.73
2019-03-23T01:29:51.461Z,103.47
2019-03-23T01:32:22.490Z,100.07
2019-03-23T01:34:53.863Z,111.07
2019-03-23T01:37:25.024Z,110.37
2019-03-23T01:39:57.679Z,127.73
2019-03-23T01:42:28.651Z,117.63
2019-03-23T01:45:01.016Z,120.43
2019-03-23T01:47:32.701Z,116.43
2019-03-23T01:50:02.622Z,115.40
2019-03-23T01:52:35.499Z,118.20
2019-03-23T01:55:12.322Z,121.30
2019-03-23T01:57:45.289Z,123.07
2019-03-23T02:00:17.224Z,117.33
2019-03-23T02:02:49.538Z,119.33
2019-03-23T02:05:20.514Z,128.63
2019-03-23T02:07:50.411Z,124.43
2019-03-23T02:10:21.347Z,118.57
2019-03-23T02:12:53.555Z,125.23
2019-03-23T02:15:23.512Z,121.37
2019-03-23T02:18:15.265Z,113.73
2019-03-23T02:20:47.495Z,125.13
2019-03-23T02:23:18.849Z,134.50
2019-03-23T02:25:49.055Z,118.73
2019-03-23T02:28:18.932Z,132.67
2019-03-23T02:30:49.803Z,126.97
2019-03-23T02:33:20.915Z,128.40
2019-03-23T02:35:55.063Z,124.90
2019-03-23T02:38:29.219Z,118.33
2019-03-23T02:41:01.423Z,122.20
2019-03-23T02:43:34.081Z,124.80
2019-03-23T02:46:06.545Z,142.50
2019-03-23T02:48:39.690Z,127.30
2019-03-23T02:51:11.109Z,144.10
2019-03-23T02:53:42.189Z,125.33
2019-03-23T02:56:14.476Z,132.40
2019-03-23T02:58:45.533Z,129.87
2019-03-23T03:01:19.647Z,131.70
2019-03-23T03:03:53.421Z,123.37
2019-03-23T03:06:24.643Z,130.40
2019-03-23T03:08:56.204Z,129.90
2019-03-23T03:11:26.192Z,139.03
2019-03-23T03:13:56.028Z,139.20
2019-03-23T03:16:25.832Z,135.50
2019-03-23T03:18:58.036Z,123.73
2019-03-23T03:21:27.875Z,133.07
2019-03-23T03:23:58.663Z,123.03
2019-03-23T03:26:28.709Z,126.90
2019-03-23T03:29:01.818Z,139.57
2019-03-23T03:31:51.709Z,133.67
2019-03-23T03:34:24.973Z,124.97
2019-03-23T03:36:57.289Z,136.73
2019-03-23T03:39:27.209Z,138.70
2019-03-23T03:41:58.525Z,126.37
2019-03-23T03:44:29.499Z,135.57
2019-03-23T03:46:58.810Z,144.17
2019-03-23T03:49:28.805Z,143.17
2019-03-23T03:52:01.394Z,176.37
2019-03-23T03:54:32.861Z,162.37
2019-03-23T03:57:04.128Z,170.00
2019-03-23T03:59:35.225Z,158.27
2019-03-23T04:02:25.587Z,146.93
2019-03-23T04:04:56.752Z,132.10
2019-03-23T04:07:30.056Z,117.13
2019-03-23T04:10:04.667Z,129.70
2019-03-23T04:12:35.839Z,132.53
2019-03-23T04:15:09.661Z,137.47
2019-03-23T04:17:39.770Z,120.77
2019-03-23T04:20:10.854Z,122.00
2019-03-23T04:22:44.787Z,132.20
2019-03-23T04:25:14.881Z,175.70
2019-03-23T04:27:46.417Z,117.97
2019-03-23T04:30:18.659Z,115.93
2019-03-23T04:32:50.979Z,120.73
2019-03-23T04:35:24.642Z,130.20
2019-03-23T04:37:56.027Z,118.30
2019-03-23T04:40:26.651Z,116.17
2019-03-23T04:42:56.569Z,121.00
2019-03-23T04:45:26.382Z,129.83
2019-03-23T04:48:18.112Z,132.43
2019-03-23T04:50:51.019Z,128.13
2019-03-23T04:53:23.570Z,117.00
2019-03-23T04:55:56.062Z,129.67
2019-03-23T04:58:27.353Z,187.30
2019-03-23T05:00:58.917Z,136.07
2019-03-23T05:03:31.202Z,132.07
2019-03-23T05:06:02.416Z,133.83
2019-03-23T05:08:34.143Z,121.60
2019-03-23T05:11:07.166Z,126.27
2019-03-23T05:13:39.328Z,153.97
2019-03-23T05:16:15.109Z,161.83
2019-03-23T05:18:45.842Z,148.53
2019-03-23T05:21:18.184Z,160.10
2019-03-23T05:23:51.783Z,134.80
2019-03-23T05:26:24.881Z,133.20
2019-03-23T05:28:55.441Z,134.13
2019-03-23T05:31:25.499Z,127.83
2019-03-23T05:33:57.578Z,121.97
2019-03-23T05:36:32.382Z,139.93
2019-03-23T05:39:03.313Z,169.70
2019-03-23T05:41:34.874Z,146.40
2019-03-23T05:44:07.437Z,139.43
2019-03-23T05:46:37.538Z,152.57
2019-03-23T05:49:07.982Z,141.93
2019-03-23T05:51:37.368Z,154.80
2019-03-23T05:54:11.836Z,150.27
2019-03-23T05:56:44.279Z,187.30
2019-03-23T05:59:16.386Z,181.07
2019-03-23T06:01:47.346Z,169.33
2019-03-23T06:04:17.357Z,173.23
2019-03-23T06:06:49.823Z,189.00
2019-03-23T06:09:24.289Z,165.47
2019-03-23T06:11:55.669Z,164.00
2019-03-23T06:14:28.319Z,143.23
2019-03-23T06:17:01.669Z,130.23
2019-03-23T06:19:32.707Z,144.50
2019-03-23T06:22:03.898Z,139.07
2019-03-23T06:24:36.275Z,132.13
2019-03-23T06:27:06.907Z,128.80
2019-03-23T06:29:39.615Z,123.17
2019-03-23T06:32:12.152Z,131.97
2019-03-23T06:34:43.123Z,130.90
2019-03-23T06:37:14.710Z,132.07
2019-03-23T06:39:47.227Z,121.90
2019-03-23T06:42:18.128Z,121.33
2019-03-23T06:44:48.084Z,114.23
2019-03-23T06:47:19.624Z,173.50
2019-03-23T06:49:54.713Z,137.17
2019-03-23T06:52:26.955Z,117.10
2019-03-23T06:54:58.172Z,121.93
2019-03-23T06:57:29.122Z,109.73
2019-03-23T07:00:00.060Z,108.63
2019-03-23T07:02:33.056Z,104.10
2019-03-23T07:05:03.702Z,106.20
2019-03-23T07:07:35.033Z,100.20
2019-03-23T07:10:09.443Z,102.80
2019-03-23T07:12:43.217Z,106.67
2019-03-23T07:15:20.411Z,106.30
2019-03-23T07:17:52.826Z,98.87
2019-03-23T07:20:25.094Z,95.20
2019-03-23T07:22:55.921Z,98.97
2019-03-23T07:25:26.126Z,106.73
2019-03-23T07:27:57.529Z,93.23
2019-03-23T07:30:27.429Z,101.67
2019-03-23T07:32:58.610Z,106.53
2019-03-23T07:35:28.415Z,93.10
2019-03-23T07:37:59.365Z,91.83
2019-03-23T07:40:31.228Z,96.17
2019-03-23T07:43:04.626Z,87.87
2019-03-23T07:45:37.184Z,90.87
2019-03-23T07:48:07.200Z,99.63
2019-03-23T07:50:38.203Z,92.07
2019-03-23T07:53:09.277Z,85.27
2019-03-23T07:55:42.304Z,83.47
2019-03-23T07:58:34.059Z,83.40
2019-03-23T08:01:05.207Z,82.50
2019-03-23T08:06:08.497Z,81.17
2019-03-23T08:08:42.350Z,75.93
2019-03-23T08:11:14.297Z,80.87
2019-03-23T08:13:47.119Z,79.37
2019-03-23T08:16:19.550Z,76.33
2019-03-23T08:18:53.962Z,77.43
2019-03-23T08:21:24.330Z,80.67
2019-03-23T08:23:55.307Z,85.97
2019-03-23T08:26:25.248Z,77.57
2019-03-23T08:28:56.308Z,80.70
2019-03-23T08:31:27.969Z,83.70
2019-03-23T08:34:01.902Z,77.43
2019-03-23T08:36:32.206Z,75.17
2019-03-23T08:39:04.667Z,73.27
2019-03-23T08:41:37.136Z,78.30
2019-03-23T08:44:08.071Z,94.53
2019-03-23T08:46:40.628Z,80.03
2019-03-23T08:49:14.867Z,78.27
2019-03-23T08:51:47.500Z,75.67
2019-03-23T08:54:19.922Z,73.80
2019-03-23T08:56:52.300Z,74.27
2019-03-23T08:59:22.402Z,82.17
2019-03-23T09:01:54.804Z,119.83
2019-03-23T09:04:25.961Z,75.10
2019-03-23T09:06:59.330Z,77.30
2019-03-23T09:09:32.404Z,79.93
2019-03-23T09:12:07.032Z,112.57
2019-03-23T09:14:38.406Z,73.33
2019-03-23T09:17:08.545Z,73.33
2019-03-23T09:19:39.891Z,74.47
2019-03-23T09:22:10.576Z,79.03
2019-03-23T09:24:46.322Z,74.63
2019-03-23T09:27:19.065Z,69.13
2019-03-23T09:29:49.146Z,89.43
2019-03-23T09:32:23.181Z,78.10
2019-03-23T09:34:55.035Z,74.73
2019-03-23T09:37:27.591Z,80.60
2019-03-23T09:40:09.865Z,78.50
2019-03-23T09:42:30.412Z,78.97
2019-03-23T09:45:01.719Z,64.53
2019-03-23T09:47:35.815Z,78.97
2019-03-23T09:50:07.552Z,64.43
2019-03-23T09:52:38.323Z,58.30
2019-03-23T09:55:10.736Z,64.13
2019-03-23T09:57:40.952Z,59.37
2019-03-23T10:00:14.851Z,66.53
2019-03-23T10:02:47.676Z,55.73
2019-03-23T10:05:20.248Z,57.47
2019-03-23T10:07:53.161Z,62.40
2019-03-23T10:10:25.817Z,56.77
2019-03-23T10:12:57.317Z,61.03
2019-03-23T10:15:30.068Z,59.83
2019-03-23T10:18:02.830Z,49.67
2019-03-23T10:20:35.669Z,53.87
2019-03-23T10:23:07.011Z,56.40
2019-03-23T10:25:38.453Z,66.77
2019-03-23T10:28:10.965Z,57.37
2019-03-23T10:30:44.286Z,56.10
2019-03-23T10:33:15.822Z,69.63
2019-03-23T10:35:49.501Z,48.73
2019-03-23T10:38:20.504Z,51.07
2019-03-23T10:40:53.507Z,48.23
2019-03-23T10:43:23.632Z,46.83
2019-03-23T10:45:54.934Z,47.43
2019-03-23T10:48:28.167Z,46.87
2019-03-23T10:51:00.722Z,42.87
2019-03-23T10:53:32.218Z,43.00
2019-03-23T10:56:03.453Z,38.33
2019-03-23T11:01:08.970Z,40.67
2019-03-23T11:03:41.633Z,41.13
2019-03-23T11:06:16.369Z,37.07
2019-03-23T11:08:55.897Z,40.03
2019-03-23T11:11:27.627Z,41.37
2019-03-23T11:14:01.486Z,37.80
2019-03-23T11:16:32.239Z,43.35
2019-03-23T11:19:13.210Z,39.83
2019-03-23T11:21:39.357Z,37.83
2019-03-23T11:24:10.678Z,35.55
2019-03-23T11:26:41.562Z,34.53
2019-03-23T11:29:12.563Z,37.95
2019-03-23T11:31:46.443Z,35.43
2019-03-23T11:34:18.007Z,35.88
2019-03-23T11:36:49.147Z,36.95
2019-03-23T11:39:20.572Z,36.20
2019-03-23T11:41:53.805Z,36.20
2019-03-23T11:44:25.817Z,38.92
2019-03-23T11:46:55.660Z,34.75
2019-03-23T11:49:28.685Z,32.70
2019-03-23T11:52:00.140Z,46.92
2019-03-23T11:54:32.796Z,49.23
2019-03-23T11:57:05.446Z,40.92
2019-03-23T11:59:36.650Z,35.75
2019-03-23T12:02:06.738Z,39.23
2019-03-23T12:04:37.491Z,41.25
2019-03-23T12:07:07.555Z,37.98
2019-03-23T12:09:38.518Z,37.20
2019-03-23T12:12:12.539Z,34.90
2019-03-23T12:14:44.185Z,30.65
2019-03-23T12:17:18.447Z,33.73
2019-03-23T12:19:49.889Z,32.67
2019-03-23T12:22:22.589Z,31.20
2019-03-23T12:24:53.723Z,30.25
2019-03-23T12:27:24.777Z,48.80
2019-03-23T12:29:54.884Z,32.48
2019-03-23T12:32:24.750Z,31.95
2019-03-23T12:34:56.933Z,30.35
2019-03-23T12:37:28.261Z,32.25
2019-03-23T12:40:00.640Z,30.90
2019-03-23T12:42:32.547Z,30.85
2019-03-23T12:45:05.542Z,35.35
2019-03-23T12:47:38.206Z,31.85
2019-03-23T12:50:11.046Z,30.35
2019-03-23T12:52:45.535Z,32.30
2019-03-23T12:55:18.007Z,28.75
2019-03-23T12:57:48.177Z,24.80
2019-03-23T13:00:19.725Z,48.58
2019-03-23T13:02:52.611Z,21.95
2019-03-23T13:05:25.535Z,24.98
2019-03-23T13:08:00.156Z,26.15
2019-03-23T13:10:34.142Z,22.10
2019-03-23T13:13:08.959Z,21.23
2019-03-23T13:15:41.513Z,25.48
2019-03-23T13:18:26.721Z,23.35
2019-03-23T13:20:49.524Z,19.07
2019-03-23T13:23:20.020Z,18.50
2019-03-23T13:25:53.805Z,17.60
2019-03-23T13:28:28.013Z,16.37
2019-03-23T13:31:01.138Z,23.52
2019-03-23T13:33:32.931Z,47.93
2019-03-23T13:36:04.563Z,26.60
2019-03-23T13:38:41.028Z,22.77
2019-03-23T13:41:13.340Z,22.82
2019-03-23T13:43:49.603Z,21.93
2019-03-23T13:46:20.818Z,18.87
2019-03-23T13:48:52.831Z,16.07
2019-03-23T13:51:24.843Z,12.50
2019-03-23T13:53:54.731Z,12.13
2019-03-23T13:56:25.817Z,14.05
2019-03-23T13:58:58.295Z,12.63
2019-03-23T14:01:28.063Z,11.20
2019-03-23T14:03:57.957Z,13.55
2019-03-23T14:06:31.095Z,71.40
2019-03-23T14:09:00.870Z,50.67
2019-03-23T14:11:32.161Z,27.37
2019-03-23T14:14:03.199Z,12.45
2019-03-23T14:16:35.627Z,10.53
2019-03-23T14:19:09.045Z,17.02
2019-03-23T14:21:41.567Z,12.47
2019-03-23T14:24:12.815Z,9.85
2019-03-23T14:26:45.525Z,9.20
2019-03-23T14:29:15.579Z,7.50
2019-03-23T14:31:45.622Z,6.72
2019-03-23T14:34:19.501Z,9.68
2019-03-23T14:36:51.980Z,12.85
2019-03-23T14:39:24.520Z,23.35
2019-03-23T14:42:04.408Z,9.75
2019-03-23T14:44:46.154Z,11.55
2019-03-23T14:47:18.746Z,11.35
2019-03-23T14:49:50.323Z,6.70
2019-03-23T14:52:40.640Z,9.85
2019-03-23T14:55:11.147Z,8.90
2019-03-23T14:57:43.588Z,11.43
2019-03-23T15:00:14.987Z,28.25
2019-03-23T15:02:47.478Z,13.55
2019-03-23T15:05:19.926Z,15.03
2019-03-23T15:07:50.811Z,23.07
2019-03-23T15:10:21.867Z,12.28
2019-03-23T15:12:53.102Z,9.25
2019-03-23T15:15:25.624Z,10.40
2019-03-23T15:17:56.892Z,11.78
2019-03-23T15:20:28.293Z,16.75
2019-03-23T15:22:59.582Z,11.70
2019-03-23T15:25:34.328Z,9.10
2019-03-23T15:28:06.914Z,15.45
2019-03-23T15:30:40.361Z,12.33
2019-03-23T15:33:10.344Z,16.80
2019-03-23T15:35:41.197Z,9.08
2019-03-23T15:38:12.361Z,9.77
2019-03-23T15:40:44.926Z,11.27
2019-03-23T15:43:15.740Z,12.90
2019-03-23T15:45:48.174Z,26.17
2019-03-23T15:48:20.603Z,26.13
2019-03-23T15:50:50.811Z,25.80
2019-03-23T15:53:21.602Z,34.00
2019-03-23T15:58:45.549Z,31.63
2019-03-23T16:01:18.109Z,34.00
2019-03-23T16:03:50.419Z,40.33
2019-03-23T16:06:22.976Z,43.63
2019-03-23T16:08:54.770Z,42.30
2019-03-23T16:11:25.608Z,46.53
2019-03-23T16:13:55.510Z,53.67
2019-03-23T16:16:25.587Z,47.47
2019-03-23T16:18:58.303Z,49.40
2019-03-23T16:21:30.685Z,58.90
2019-03-23T16:24:01.988Z,47.60
2019-03-23T16:29:03.844Z,67.90
2019-03-23T16:31:38.282Z,56.10
2019-03-23T16:34:10.342Z,58.57
2019-03-23T16:36:41.502Z,61.90
2019-03-23T16:39:13.783Z,71.83
2019-03-23T16:41:47.784Z,82.13
2019-03-23T16:44:21.130Z,67.20
2019-03-23T16:46:55.841Z,103.73
2019-03-23T16:49:28.080Z,109.27
2019-03-23T16:51:58.086Z,98.07
2019-03-23T16:54:30.409Z,77.00
2019-03-23T16:57:02.883Z,72.93
2019-03-23T16:59:36.597Z,82.20
2019-03-23T17:02:07.699Z,104.57
2019-03-23T17:04:39.041Z,204.73
2019-03-23T17:07:10.616Z,210.50
2019-03-23T17:10:01.561Z,204.70
2019-03-23T17:12:32.711Z,151.53
2019-03-23T17:15:04.168Z,162.53
2019-03-23T17:17:34.210Z,179.30
2019-03-23T17:20:06.468Z,328.43
2019-03-23T17:22:38.512Z,239.03
2019-03-23T17:25:10.074Z,131.63
2019-03-23T17:27:43.322Z,105.37
2019-03-23T17:30:13.500Z,98.23
2019-03-23T17:32:46.536Z,90.77
2019-03-23T17:35:16.480Z,99.40
2019-03-23T17:37:47.914Z,105.73
2019-03-23T17:40:19.387Z,111.13
2019-03-23T17:42:50.846Z,97.70
2019-03-23T17:45:22.582Z,87.00
2019-03-23T17:47:54.021Z,91.00
2019-03-23T17:50:26.403Z,88.57
2019-03-23T17:52:56.546Z,89.27
2019-03-23T17:55:28.533Z,100.40
2019-03-23T17:58:00.482Z,94.80
2019-03-23T18:00:30.934Z,74.80
2019-03-23T18:03:01.135Z,84.40
2019-03-23T18:05:31.356Z,94.57
2019-03-23T18:08:02.402Z,83.03
2019-03-23T18:10:35.132Z,81.83
2019-03-23T18:13:16.121Z,89.43
2019-03-23T18:15:42.768Z,120.80
2019-03-23T18:18:13.876Z,127.87
2019-03-23T18:20:44.524Z,109.97
2019-03-23T18:23:19.323Z,86.90
2019-03-23T18:25:50.346Z,66.47
2019-03-23T18:28:21.455Z,73.80
2019-03-23T18:30:53.884Z,59.50
2019-03-23T18:33:43.928Z,53.00
2019-03-23T18:36:17.507Z,51.50
2019-03-23T18:38:51.720Z,54.33
2019-03-23T18:41:23.209Z,55.77
2019-03-23T18:44:02.764Z,47.13
2019-03-23T18:46:40.767Z,91.53
2019-03-23T18:49:12.861Z,281.30
2019-03-23T18:51:45.288Z,470.30
2019-03-23T18:54:17.786Z,448.10
2019-03-23T18:56:48.829Z,344.60
2019-03-23T18:59:21.133Z,334.77
2019-03-23T19:01:53.204Z,331.37
2019-03-23T19:04:27.440Z,308.40
2019-03-23T19:06:57.843Z,305.80
2019-03-23T19:09:28.747Z,378.27
2019-03-23T19:11:59.784Z,207.53
2019-03-23T19:14:29.743Z,206.83
2019-03-23T19:17:02.529Z,196.80
2019-03-23T19:19:34.804Z,175.30
2019-03-23T19:22:04.809Z,76.07
2019-03-23T19:24:35.534Z,108.27
2019-03-23T19:27:08.531Z,108.57
2019-03-23T19:29:40.926Z,149.70
2019-03-23T19:32:14.070Z,216.40
2019-03-23T19:34:44.256Z,281.67
2019-03-23T19:37:15.942Z,382.70
2019-03-23T19:39:50.718Z,284.50
2019-03-23T19:42:25.010Z,256.93
2019-03-23T19:45:03.854Z,212.93
2019-03-23T19:47:34.830Z,197.37
2019-03-23T19:50:17.147Z,214.94
2019-03-23T19:52:51.198Z,171.83
2019-03-23T19:55:21.230Z,146.47
2019-03-23T19:57:54.702Z,124.03
2019-03-23T20:00:25.546Z,142.37
2019-03-23T20:02:56.628Z,137.00
2019-03-23T20:05:28.936Z,143.00
2019-03-23T20:08:05.375Z,130.13
2019-03-23T20:10:35.152Z,152.27
2019-03-23T20:13:05.257Z,173.63
2019-03-23T20:15:37.750Z,211.70
2019-03-23T20:18:09.083Z,231.83
2019-03-23T20:20:40.141Z,137.83
2019-03-23T20:23:10.500Z,120.87
2019-03-23T20:25:42.621Z,113.93
2019-03-23T20:28:13.891Z,119.93
2019-03-23T20:30:46.560Z,142.07
2019-03-23T20:33:19.636Z,166.20
2019-03-23T20:35:49.172Z,144.83
2019-03-23T20:38:20.106Z,131.33
2019-03-23T20:40:53.735Z,113.63
2019-03-23T20:43:24.485Z,96.33
2019-03-23T20:45:56.959Z,124.87
2019-03-23T20:48:28.176Z,164.33
2019-03-23T20:50:58.198Z,174.17
2019-03-23T20:53:30.792Z,138.40
2019-03-23T20:56:00.651Z,130.13
2019-03-23T20:58:31.916Z,72.13
2019-03-23T21:01:03.081Z,116.33
2019-03-23T21:03:37.427Z,123.03
2019-03-23T21:06:08.876Z,83.40
2019-03-23T21:08:39.914Z,65.77
2019-03-23T21:11:10.469Z,75.33
2019-03-23T21:13:41.986Z,80.47
2019-03-23T21:16:11.826Z,75.10
2019-03-23T21:18:42.946Z,82.37
2019-03-23T21:21:14.234Z,73.47
2019-03-23T21:23:45.637Z,75.43
2019-03-23T21:26:17.770Z,77.90
2019-03-23T21:28:48.855Z,71.83
2019-03-23T21:31:18.759Z,72.23
2019-03-23T21:33:49.835Z,71.33
2019-03-23T21:36:21.127Z,79.47
2019-03-23T21:38:51.997Z,74.27
2019-03-23T21:41:23.787Z,73.30
2019-03-23T21:43:55.040Z,70.77
2019-03-23T21:46:24.797Z,73.07
2019-03-23T21:48:57.258Z,75.07
2019-03-23T21:51:31.704Z,76.40
2019-03-23T21:54:04.602Z,79.47
2019-03-23T21:56:55.105Z,77.67
2019-03-23T21:59:27.975Z,82.17
2019-03-23T22:01:59.508Z,80.20
2019-03-23T22:04:32.115Z,74.67
2019-03-23T22:07:04.915Z,75.70
2019-03-23T22:09:37.313Z,72.57
2019-03-23T22:12:08.669Z,86.23
2019-03-23T22:14:41.905Z,86.30
2019-03-23T22:17:11.045Z,88.13
2019-03-23T22:19:40.992Z,91.37
2019-03-23T22:22:13.061Z,88.07
2019-03-23T22:24:45.720Z,84.40
2019-03-23T22:27:19.263Z,78.83
2019-03-23T22:29:52.254Z,81.37
2019-03-23T22:32:26.641Z,81.63
2019-03-23T22:34:58.078Z,78.13
2019-03-23T22:37:28.801Z,96.07
2019-03-23T22:40:01.697Z,91.67
2019-03-23T22:42:34.789Z,84.07
2019-03-23T22:45:08.851Z,84.67
2019-03-23T22:47:40.043Z,89.70
2019-03-23T22:50:12.389Z,84.60
2019-03-23T22:52:46.771Z,86.83
2019-03-23T22:55:17.911Z,88.70
2019-03-23T22:57:49.121Z,78.20
2019-03-23T23:00:29.567Z,74.77
2019-03-23T23:03:00.682Z,74.63
2019-03-23T23:05:31.356Z,68.47
2019-03-23T23:08:00.765Z,77.20
2019-03-23T23:10:33.608Z,72.77
2019-03-23T23:13:05.882Z,67.63
2019-03-23T23:15:35.833Z,71.73
2019-03-23T23:18:06.012Z,63.40
2019-03-23T23:20:38.073Z,72.50
2019-03-23T23:23:10.632Z,70.40
2019-03-23T23:25:43.633Z,63.73
2019-03-23T23:28:14.118Z,62.17
2019-03-23T23:30:44.042Z,65.63
2019-03-23T23:33:15.104Z,60.50
2019-03-23T23:35:46.189Z,60.20
2019-03-23T23:38:18.559Z,61.43
2019-03-23T23:40:53.084Z,60.97
2019-03-23T23:43:24.152Z,62.77
2019-03-23T23:45:57.700Z,61.63
2019-03-23T23:48:27.126Z,54.00
2019-03-23T23:51:00.552Z,60.97
2019-03-23T23:53:31.507Z,53.50
2019-03-23T23:56:01.467Z,60.83
2019-03-23T23:58:32.338Z,58.07
